sensor_id;sensor_type;location;lat;lon;timestamp;P1;durP1;ratioP1;P2;durP2;ratioP2
74042;SDS011;62384;53.600;10.040;2022-11-11T00:01:06;13.48;;;1.70;;
74042;SDS011;62384;53.600;10.040;2022-11-11T00:03:31;3.03;;;1.45;;
74042;SDS011;62384;53.600;10.040;2022-11-11T00:06:00;7.82;;;1.52;;
74042;SDS011;62384;53.600;10.040;2022-11-11T00:08:27;8.13;;;1.70;;
74042;SDS011;62384;53.600;10.040;2022-11-11T00:10:52;6.40;;;1.70;;
74042;SDS011;62384;53.600;10.040;2022-11-11T00:13:17;10.50;;;1.85;;
74042;SDS011;62384;53.600;10.040;2022-11-11T00:15:43;5.75;;;1.42;;
74042;SDS011;62384;53.600;10.040;2022-11-11T00:18:09;8.75;;;1.85;;
74042;SDS011;62384;53.600;10.040;2022-11-11T00:20:56;4.93;;;1.88;;
74042;SDS011;62384;53.600;10.040;2022-11-11T00:23:51;5.47;;;1.67;;
74042;SDS011;62384;53.600;10.040;2022-11-11T00:26:35;8.18;;;1.85;;
74042;SDS011;62384;53.600;10.040;2022-11-11T00:29:00;7.97;;;2.17;;
74042;SDS011;62384;53.600;10.040;2022-11-11T00:31:25;5.93;;;1.77;;
74042;SDS011;62384;53.600;10.040;2022-11-11T00:33:51;3.95;;;1.70;;
74042;SDS011;62384;53.600;10.040;2022-11-11T00:36:18;9.05;;;2.22;;
74042;SDS011;62384;53.600;10.040;2022-11-11T00:38:43;8.02;;;2.53;;
74042;SDS011;62384;53.600;10.040;2022-11-11T00:41:16;12.52;;;2.92;;
74042;SDS011;62384;53.600;10.040;2022-11-11T00:43:43;10.50;;;3.25;;
74042;SDS011;62384;53.600;10.040;2022-11-11T00:46:10;6.80;;;2.97;;
74042;SDS011;62384;53.600;10.040;2022-11-11T00:48:55;5.25;;;2.58;;
74042;SDS011;62384;53.600;10.040;2022-11-11T00:51:39;9.30;;;2.92;;
74042;SDS011;62384;53.600;10.040;2022-11-11T00:54:05;9.82;;;2.75;;
74042;SDS011;62384;53.600;10.040;2022-11-11T00:56:30;9.77;;;2.63;;
74042;SDS011;62384;53.600;10.040;2022-11-11T00:58:56;6.22;;;3.28;;
74042;SDS011;62384;53.600;10.040;2022-11-11T01:01:21;9.80;;;2.80;;
74042;SDS011;62384;53.600;10.040;2022-11-11T01:03:46;8.75;;;2.70;;
74042;SDS011;62384;53.600;10.040;2022-11-11T01:06:12;9.07;;;3.55;;
74042;SDS011;62384;53.600;10.040;2022-11-11T01:08:38;7.82;;;2.92;;
74042;SDS011;62384;53.600;10.040;2022-11-11T01:11:14;10.23;;;3.08;;
74042;SDS011;62384;53.600;10.040;2022-11-11T01:13:41;7.30;;;2.97;;
74042;SDS011;62384;53.600;10.040;2022-11-11T01:16:08;11.32;;;3.60;;
74042;SDS011;62384;53.600;10.040;2022-11-11T01:18:40;8.30;;;3.20;;
74042;SDS011;62384;53.600;10.040;2022-11-11T01:21:16;13.93;;;3.88;;
74042;SDS011;62384;53.600;10.040;2022-11-11T01:23:44;9.40;;;3.72;;
74042;SDS011;62384;53.600;10.040;2022-11-11T01:26:18;10.18;;;4.22;;
74042;SDS011;62384;53.600;10.040;2022-11-11T01:28:49;8.63;;;3.70;;
74042;SDS011;62384;53.600;10.040;2022-11-11T01:31:16;7.90;;;3.70;;
74042;SDS011;62384;53.600;10.040;2022-11-11T01:33:42;6.25;;;3.22;;
74042;SDS011;62384;53.600;10.040;2022-11-11T01:36:12;7.20;;;2.70;;
74042;SDS011;62384;53.600;10.040;2022-11-11T01:38:40;11.85;;;3.65;;
74042;SDS011;62384;53.600;10.040;2022-11-11T01:41:13;6.25;;;3.15;;
74042;SDS011;62384;53.600;10.040;2022-11-11T01:43:59;11.57;;;3.63;;
74042;SDS011;62384;53.600;10.040;2022-11-11T01:46:33;12.18;;;3.15;;
74042;SDS011;62384;53.600;10.040;2022-11-11T01:57:27;11.50;;;4.00;;
74042;SDS011;62384;53.600;10.040;2022-11-11T02:00:00;8.32;;;3.08;;
74042;SDS011;62384;53.600;10.040;2022-11-11T02:05:13;6.20;;;3.88;;
74042;SDS011;62384;53.600;10.040;2022-11-11T02:08:00;7.90;;;3.38;;
74042;SDS011;62384;53.600;10.040;2022-11-11T02:10:29;14.02;;;3.60;;
74042;SDS011;62384;53.600;10.040;2022-11-11T02:12:57;7.35;;;3.67;;
74042;SDS011;62384;53.600;10.040;2022-11-11T02:15:41;7.07;;;3.47;;
74042;SDS011;62384;53.600;10.040;2022-11-11T02:18:07;9.52;;;3.38;;
74042;SDS011;62384;53.600;10.040;2022-11-11T02:20:36;10.50;;;3.47;;
74042;SDS011;62384;53.600;10.040;2022-11-11T02:25:54;6.68;;;3.47;;
74042;SDS011;62384;53.600;10.040;2022-11-11T02:28:23;8.82;;;3.45;;
74042;SDS011;62384;53.600;10.040;2022-11-11T02:30:51;11.73;;;3.58;;
74042;SDS011;62384;53.600;10.040;2022-11-11T02:33:16;10.65;;;4.38;;
74042;SDS011;62384;53.600;10.040;2022-11-11T02:35:45;9.07;;;3.45;;
74042;SDS011;62384;53.600;10.040;2022-11-11T02:38:20;7.28;;;3.58;;
74042;SDS011;62384;53.600;10.040;2022-11-11T02:40:50;11.60;;;3.97;;
74042;SDS011;62384;53.600;10.040;2022-11-11T02:43:34;10.20;;;3.72;;
74042;SDS011;62384;53.600;10.040;2022-11-11T02:46:00;6.47;;;3.58;;
74042;SDS011;62384;53.600;10.040;2022-11-11T02:48:26;10.00;;;3.97;;
74042;SDS011;62384;53.600;10.040;2022-11-11T02:50:52;8.70;;;3.20;;
74042;SDS011;62384;53.600;10.040;2022-11-11T02:53:18;8.02;;;4.07;;
74042;SDS011;62384;53.600;10.040;2022-11-11T02:55:43;7.40;;;3.40;;
74042;SDS011;62384;53.600;10.040;2022-11-11T02:58:18;10.35;;;3.58;;
74042;SDS011;62384;53.600;10.040;2022-11-11T03:00:43;8.13;;;3.00;;
74042;SDS011;62384;53.600;10.040;2022-11-11T03:03:09;5.68;;;2.75;;
74042;SDS011;62384;53.600;10.040;2022-11-11T03:05:34;9.32;;;2.92;;
74042;SDS011;62384;53.600;10.040;2022-11-11T03:08:00;5.82;;;2.92;;
74042;SDS011;62384;53.600;10.040;2022-11-11T03:10:25;11.35;;;3.13;;
74042;SDS011;62384;53.600;10.040;2022-11-11T03:12:52;6.40;;;3.08;;
74042;SDS011;62384;53.600;10.040;2022-11-11T03:15:17;6.30;;;2.60;;
74042;SDS011;62384;53.600;10.040;2022-11-11T03:17:42;5.68;;;2.78;;
74042;SDS011;62384;53.600;10.040;2022-11-11T03:23:01;6.85;;;2.97;;
74042;SDS011;62384;53.600;10.040;2022-11-11T03:25:28;6.97;;;2.42;;
74042;SDS011;62384;53.600;10.040;2022-11-11T03:28:04;5.65;;;2.42;;
74042;SDS011;62384;53.600;10.040;2022-11-11T03:30:30;7.60;;;2.90;;
74042;SDS011;62384;53.600;10.040;2022-11-11T03:32:57;6.93;;;3.05;;
74042;SDS011;62384;53.600;10.040;2022-11-11T03:35:26;7.50;;;2.85;;
74042;SDS011;62384;53.600;10.040;2022-11-11T03:37:53;7.03;;;2.50;;
74042;SDS011;62384;53.600;10.040;2022-11-11T03:40:37;10.15;;;3.40;;
74042;SDS011;62384;53.600;10.040;2022-11-11T03:43:02;6.28;;;3.45;;
74042;SDS011;62384;53.600;10.040;2022-11-11T03:45:27;16.45;;;4.20;;
74042;SDS011;62384;53.600;10.040;2022-11-11T03:47:52;10.73;;;3.10;;
74042;SDS011;62384;53.600;10.040;2022-11-11T03:50:19;9.75;;;3.88;;
74042;SDS011;62384;53.600;10.040;2022-11-11T03:52:45;11.13;;;3.38;;
74042;SDS011;62384;53.600;10.040;2022-11-11T03:55:10;10.30;;;2.65;;
74042;SDS011;62384;53.600;10.040;2022-11-11T03:57:45;13.50;;;3.20;;
74042;SDS011;62384;53.600;10.040;2022-11-11T04:00:11;5.05;;;2.80;;
74042;SDS011;62384;53.600;10.040;2022-11-11T04:02:39;8.13;;;3.10;;
74042;SDS011;62384;53.600;10.040;2022-11-11T04:05:23;6.65;;;2.83;;
74042;SDS011;62384;53.600;10.040;2022-11-11T04:08:11;7.45;;;3.42;;
74042;SDS011;62384;53.600;10.040;2022-11-11T04:11:00;11.50;;;3.20;;
74042;SDS011;62384;53.600;10.040;2022-11-11T04:13:28;7.88;;;3.10;;
74042;SDS011;62384;53.600;10.040;2022-11-11T04:16:13;6.40;;;3.00;;
74042;SDS011;62384;53.600;10.040;2022-11-11T04:18:39;10.57;;;3.83;;
74042;SDS011;62384;53.600;10.040;2022-11-11T04:21:23;6.85;;;3.05;;
74042;SDS011;62384;53.600;10.040;2022-11-11T04:24:07;12.82;;;3.75;;
74042;SDS011;62384;53.600;10.040;2022-11-11T04:26:57;12.80;;;3.80;;
74042;SDS011;62384;53.600;10.040;2022-11-11T04:29:24;7.30;;;3.00;;
74042;SDS011;62384;53.600;10.040;2022-11-11T04:31:55;11.20;;;3.03;;
74042;SDS011;62384;53.600;10.040;2022-11-11T04:34:44;8.93;;;3.45;;
74042;SDS011;62384;53.600;10.040;2022-11-11T04:37:11;11.30;;;3.78;;
74042;SDS011;62384;53.600;10.040;2022-11-11T04:39:37;9.13;;;3.70;;
74042;SDS011;62384;53.600;10.040;2022-11-11T04:42:21;7.68;;;3.67;;
74042;SDS011;62384;53.600;10.040;2022-11-11T04:44:47;10.07;;;3.85;;
74042;SDS011;62384;53.600;10.040;2022-11-11T04:47:31;8.15;;;3.65;;
74042;SDS011;62384;53.600;10.040;2022-11-11T04:49:57;11.48;;;3.72;;
74042;SDS011;62384;53.600;10.040;2022-11-11T04:52:22;14.75;;;4.97;;
74042;SDS011;62384;53.600;10.040;2022-11-11T04:54:50;11.98;;;3.78;;
74042;SDS011;62384;53.600;10.040;2022-11-11T04:57:37;8.48;;;3.75;;
74042;SDS011;62384;53.600;10.040;2022-11-11T05:00:04;9.25;;;3.65;;
74042;SDS011;62384;53.600;10.040;2022-11-11T05:02:29;10.23;;;4.13;;
74042;SDS011;62384;53.600;10.040;2022-11-11T05:05:13;13.70;;;4.00;;
74042;SDS011;62384;53.600;10.040;2022-11-11T05:07:38;7.20;;;4.00;;
74042;SDS011;62384;53.600;10.040;2022-11-11T05:10:23;12.88;;;3.63;;
74042;SDS011;62384;53.600;10.040;2022-11-11T05:12:49;8.95;;;4.43;;
74042;SDS011;62384;53.600;10.040;2022-11-11T05:15:14;10.82;;;4.13;;
74042;SDS011;62384;53.600;10.040;2022-11-11T05:17:58;8.15;;;4.15;;
74042;SDS011;62384;53.600;10.040;2022-11-11T05:20:46;11.50;;;4.25;;
74042;SDS011;62384;53.600;10.040;2022-11-11T05:23:31;9.43;;;4.47;;
74042;SDS011;62384;53.600;10.040;2022-11-11T05:26:15;12.52;;;4.45;;
74042;SDS011;62384;53.600;10.040;2022-11-11T05:28:40;10.07;;;3.80;;
74042;SDS011;62384;53.600;10.040;2022-11-11T05:31:05;10.95;;;4.20;;
74042;SDS011;62384;53.600;10.040;2022-11-11T05:33:30;14.75;;;5.20;;
74042;SDS011;62384;53.600;10.040;2022-11-11T05:35:56;11.55;;;4.80;;
74042;SDS011;62384;53.600;10.040;2022-11-11T05:38:21;10.57;;;4.63;;
74042;SDS011;62384;53.600;10.040;2022-11-11T05:40:46;11.63;;;4.25;;
74042;SDS011;62384;53.600;10.040;2022-11-11T05:43:12;11.73;;;4.70;;
74042;SDS011;62384;53.600;10.040;2022-11-11T05:45:40;12.85;;;5.35;;
74042;SDS011;62384;53.600;10.040;2022-11-11T05:48:06;16.17;;;4.50;;
74042;SDS011;62384;53.600;10.040;2022-11-11T05:50:31;13.15;;;4.60;;
74042;SDS011;62384;53.600;10.040;2022-11-11T05:53:00;10.68;;;4.40;;
74042;SDS011;62384;53.600;10.040;2022-11-11T05:55:25;11.65;;;4.80;;
74042;SDS011;62384;53.600;10.040;2022-11-11T05:57:50;14.68;;;4.75;;
74042;SDS011;62384;53.600;10.040;2022-11-11T06:00:16;13.60;;;4.70;;
74042;SDS011;62384;53.600;10.040;2022-11-11T06:02:41;19.65;;;5.10;;
74042;SDS011;62384;53.600;10.040;2022-11-11T06:05:07;16.63;;;5.97;;
74042;SDS011;62384;53.600;10.040;2022-11-11T06:07:32;13.73;;;5.10;;
74042;SDS011;62384;53.600;10.040;2022-11-11T06:09:58;11.35;;;5.00;;
74042;SDS011;62384;53.600;10.040;2022-11-11T06:12:43;29.98;;;6.43;;
74042;SDS011;62384;53.600;10.040;2022-11-11T06:15:28;18.13;;;5.40;;
74042;SDS011;62384;53.600;10.040;2022-11-11T06:17:54;14.98;;;5.43;;
74042;SDS011;62384;53.600;10.040;2022-11-11T06:20:20;12.52;;;6.45;;
74042;SDS011;62384;53.600;10.040;2022-11-11T06:22:45;15.55;;;6.35;;
74042;SDS011;62384;53.600;10.040;2022-11-11T06:25:23;19.65;;;6.97;;
74042;SDS011;62384;53.600;10.040;2022-11-11T06:28:11;15.52;;;6.82;;
74042;SDS011;62384;53.600;10.040;2022-11-11T06:30:38;14.52;;;6.88;;
74042;SDS011;62384;53.600;10.040;2022-11-11T06:33:04;16.65;;;6.25;;
74042;SDS011;62384;53.600;10.040;2022-11-11T06:35:31;17.75;;;6.20;;
74042;SDS011;62384;53.600;10.040;2022-11-11T06:38:00;18.67;;;6.40;;
74042;SDS011;62384;53.600;10.040;2022-11-11T06:40:26;19.67;;;6.35;;
74042;SDS011;62384;53.600;10.040;2022-11-11T06:42:52;17.08;;;6.10;;
74042;SDS011;62384;53.600;10.040;2022-11-11T06:45:18;12.52;;;6.35;;
74042;SDS011;62384;53.600;10.040;2022-11-11T06:47:43;17.48;;;6.15;;
74042;SDS011;62384;53.600;10.040;2022-11-11T06:50:08;17.80;;;7.03;;
74042;SDS011;62384;53.600;10.040;2022-11-11T06:52:34;12.93;;;6.60;;
74042;SDS011;62384;53.600;10.040;2022-11-11T06:54:59;14.65;;;7.40;;
74042;SDS011;62384;53.600;10.040;2022-11-11T06:57:24;19.67;;;6.72;;
74042;SDS011;62384;53.600;10.040;2022-11-11T06:59:49;18.88;;;8.27;;
74042;SDS011;62384;53.600;10.040;2022-11-11T07:02:15;23.92;;;8.35;;
74042;SDS011;62384;53.600;10.040;2022-11-11T07:04:42;19.10;;;7.78;;
74042;SDS011;62384;53.600;10.040;2022-11-11T07:07:10;18.63;;;7.18;;
74042;SDS011;62384;53.600;10.040;2022-11-11T07:09:35;16.20;;;7.43;;
74042;SDS011;62384;53.600;10.040;2022-11-11T07:12:01;21.55;;;8.23;;
74042;SDS011;62384;53.600;10.040;2022-11-11T07:14:26;17.38;;;7.35;;
74042;SDS011;62384;53.600;10.040;2022-11-11T07:16:51;18.13;;;7.07;;
74042;SDS011;62384;53.600;10.040;2022-11-11T07:19:17;21.65;;;7.82;;
74042;SDS011;62384;53.600;10.040;2022-11-11T07:21:42;23.63;;;8.25;;
74042;SDS011;62384;53.600;10.040;2022-11-11T07:24:08;19.98;;;7.38;;
74042;SDS011;62384;53.600;10.040;2022-11-11T07:26:33;21.63;;;8.93;;
74042;SDS011;62384;53.600;10.040;2022-11-11T07:28:58;22.17;;;7.45;;
74042;SDS011;62384;53.600;10.040;2022-11-11T07:31:23;25.27;;;8.20;;
74042;SDS011;62384;53.600;10.040;2022-11-11T07:33:49;20.10;;;8.43;;
74042;SDS011;62384;53.600;10.040;2022-11-11T07:36:14;15.95;;;7.90;;
74042;SDS011;62384;53.600;10.040;2022-11-11T07:38:39;15.63;;;7.65;;
74042;SDS011;62384;53.600;10.040;2022-11-11T07:41:04;22.30;;;7.95;;
74042;SDS011;62384;53.600;10.040;2022-11-11T07:43:30;17.88;;;7.63;;
74042;SDS011;62384;53.600;10.040;2022-11-11T07:45:55;19.75;;;8.15;;
74042;SDS011;62384;53.600;10.040;2022-11-11T07:48:21;20.27;;;7.63;;
74042;SDS011;62384;53.600;10.040;2022-11-11T07:50:46;17.20;;;8.05;;
74042;SDS011;62384;53.600;10.040;2022-11-11T07:53:11;22.88;;;8.25;;
74042;SDS011;62384;53.600;10.040;2022-11-11T07:55:36;21.83;;;8.10;;
74042;SDS011;62384;53.600;10.040;2022-11-11T07:58:02;20.50;;;8.10;;
74042;SDS011;62384;53.600;10.040;2022-11-11T08:00:33;24.65;;;8.70;;
74042;SDS011;62384;53.600;10.040;2022-11-11T08:02:58;20.17;;;8.15;;
74042;SDS011;62384;53.600;10.040;2022-11-11T08:05:23;20.88;;;8.50;;
74042;SDS011;62384;53.600;10.040;2022-11-11T08:07:49;31.88;;;8.65;;
74042;SDS011;62384;53.600;10.040;2022-11-11T08:10:15;27.92;;;8.77;;
74042;SDS011;62384;53.600;10.040;2022-11-11T08:12:40;19.48;;;8.63;;
74042;SDS011;62384;53.600;10.040;2022-11-11T08:15:24;19.20;;;8.40;;
74042;SDS011;62384;53.600;10.040;2022-11-11T08:17:49;25.77;;;10.20;;
74042;SDS011;62384;53.600;10.040;2022-11-11T08:20:14;30.75;;;10.07;;
74042;SDS011;62384;53.600;10.040;2022-11-11T08:22:40;26.00;;;10.43;;
74042;SDS011;62384;53.600;10.040;2022-11-11T08:25:07;26.13;;;8.82;;
74042;SDS011;62384;53.600;10.040;2022-11-11T08:27:34;23.77;;;9.02;;
74042;SDS011;62384;53.600;10.040;2022-11-11T08:30:01;21.85;;;9.27;;
74042;SDS011;62384;53.600;10.040;2022-11-11T08:32:28;25.48;;;9.75;;
74042;SDS011;62384;53.600;10.040;2022-11-11T08:34:54;28.55;;;9.40;;
74042;SDS011;62384;53.600;10.040;2022-11-11T08:37:19;24.25;;;8.73;;
74042;SDS011;62384;53.600;10.040;2022-11-11T08:39:44;24.48;;;8.65;;
74042;SDS011;62384;53.600;10.040;2022-11-11T08:42:09;32.00;;;9.18;;
74042;SDS011;62384;53.600;10.040;2022-11-11T08:44:35;26.05;;;9.93;;
74042;SDS011;62384;53.600;10.040;2022-11-11T08:47:00;28.85;;;9.57;;
74042;SDS011;62384;53.600;10.040;2022-11-11T08:49:25;24.70;;;9.40;;
74042;SDS011;62384;53.600;10.040;2022-11-11T08:51:51;21.42;;;9.55;;
74042;SDS011;62384;53.600;10.040;2022-11-11T08:54:16;21.05;;;9.70;;
74042;SDS011;62384;53.600;10.040;2022-11-11T08:56:41;31.33;;;10.32;;
74042;SDS011;62384;53.600;10.040;2022-11-11T08:59:07;21.13;;;9.70;;
74042;SDS011;62384;53.600;10.040;2022-11-11T09:01:34;19.27;;;8.48;;
74042;SDS011;62384;53.600;10.040;2022-11-11T09:03:59;18.95;;;9.50;;
74042;SDS011;62384;53.600;10.040;2022-11-11T09:06:25;21.85;;;8.98;;
74042;SDS011;62384;53.600;10.040;2022-11-11T09:08:50;27.77;;;9.27;;
74042;SDS011;62384;53.600;10.040;2022-11-11T09:11:15;28.33;;;9.80;;
74042;SDS011;62384;53.600;10.040;2022-11-11T09:13:41;25.65;;;9.32;;
74042;SDS011;62384;53.600;10.040;2022-11-11T09:16:06;21.75;;;9.32;;
74042;SDS011;62384;53.600;10.040;2022-11-11T09:18:34;24.98;;;9.30;;
74042;SDS011;62384;53.600;10.040;2022-11-11T09:20:59;28.20;;;10.25;;
74042;SDS011;62384;53.600;10.040;2022-11-11T09:23:24;26.48;;;9.60;;
74042;SDS011;62384;53.600;10.040;2022-11-11T09:25:50;25.60;;;9.23;;
74042;SDS011;62384;53.600;10.040;2022-11-11T09:28:15;28.83;;;10.63;;
74042;SDS011;62384;53.600;10.040;2022-11-11T09:30:40;21.80;;;9.55;;
74042;SDS011;62384;53.600;10.040;2022-11-11T09:33:06;22.58;;;8.80;;
74042;SDS011;62384;53.600;10.040;2022-11-11T09:35:31;21.58;;;9.50;;
74042;SDS011;62384;53.600;10.040;2022-11-11T09:37:57;24.83;;;9.52;;
74042;SDS011;62384;53.600;10.040;2022-11-11T09:40:24;25.83;;;9.35;;
74042;SDS011;62384;53.600;10.040;2022-11-11T09:45:28;23.48;;;9.45;;
74042;SDS011;62384;53.600;10.040;2022-11-11T09:50:51;30.60;;;9.65;;
74042;SDS011;62384;53.600;10.040;2022-11-11T09:56:00;23.60;;;9.55;;
74042;SDS011;62384;53.600;10.040;2022-11-11T09:58:33;18.90;;;8.57;;
74042;SDS011;62384;53.600;10.040;2022-11-11T10:03:32;29.23;;;10.27;;
74042;SDS011;62384;53.600;10.040;2022-11-11T10:08:42;28.52;;;9.65;;
74042;SDS011;62384;53.600;10.040;2022-11-11T10:11:21;22.05;;;9.02;;
74042;SDS011;62384;53.600;10.040;2022-11-11T10:13:53;22.30;;;8.88;;
74042;SDS011;62384;53.600;10.040;2022-11-11T10:16:23;18.60;;;8.68;;
74042;SDS011;62384;53.600;10.040;2022-11-11T10:24:01;21.15;;;8.27;;
74042;SDS011;62384;53.600;10.040;2022-11-11T10:26:41;22.33;;;8.80;;
74042;SDS011;62384;53.600;10.040;2022-11-11T10:29:13;20.27;;;9.27;;
74042;SDS011;62384;53.600;10.040;2022-11-11T10:31:42;20.42;;;8.93;;
74042;SDS011;62384;53.600;10.040;2022-11-11T10:34:16;27.23;;;9.02;;
74042;SDS011;62384;53.600;10.040;2022-11-11T10:36:45;25.70;;;9.20;;
74042;SDS011;62384;53.600;10.040;2022-11-11T10:39:21;17.95;;;7.95;;
74042;SDS011;62384;53.600;10.040;2022-11-11T10:41:51;18.90;;;7.93;;
74042;SDS011;62384;53.600;10.040;2022-11-11T10:49:32;21.25;;;9.30;;
74042;SDS011;62384;53.600;10.040;2022-11-11T10:55:04;17.42;;;8.32;;
74042;SDS011;62384;53.600;10.040;2022-11-11T11:00:14;22.88;;;9.02;;
74042;SDS011;62384;53.600;10.040;2022-11-11T11:02:44;18.08;;;8.85;;
74042;SDS011;62384;53.600;10.040;2022-11-11T11:05:36;17.75;;;8.07;;
74042;SDS011;62384;53.600;10.040;2022-11-11T11:08:11;19.70;;;8.27;;
74042;SDS011;62384;53.600;10.040;2022-11-11T11:10:42;18.30;;;8.68;;
74042;SDS011;62384;53.600;10.040;2022-11-11T11:13:14;20.80;;;7.95;;
74042;SDS011;62384;53.600;10.040;2022-11-11T11:15:43;17.90;;;8.02;;
74042;SDS011;62384;53.600;10.040;2022-11-11T11:18:14;16.75;;;7.53;;
74042;SDS011;62384;53.600;10.040;2022-11-11T11:20:54;21.90;;;8.77;;
74042;SDS011;62384;53.600;10.040;2022-11-11T11:26:02;21.83;;;8.60;;
74042;SDS011;62384;53.600;10.040;2022-11-11T11:28:28;23.25;;;8.52;;
74042;SDS011;62384;53.600;10.040;2022-11-11T11:31:01;20.48;;;8.18;;
74042;SDS011;62384;53.600;10.040;2022-11-11T11:34:02;19.17;;;8.30;;
74042;SDS011;62384;53.600;10.040;2022-11-11T11:36:21;20.45;;;8.52;;
74042;SDS011;62384;53.600;10.040;2022-11-11T11:38:47;26.20;;;8.95;;
74042;SDS011;62384;53.600;10.040;2022-11-11T11:41:17;23.60;;;9.27;;
74042;SDS011;62384;53.600;10.040;2022-11-11T11:44:00;22.35;;;8.85;;
74042;SDS011;62384;53.600;10.040;2022-11-11T11:49:18;21.65;;;8.15;;
74042;SDS011;62384;53.600;10.040;2022-11-11T11:52:10;19.70;;;7.90;;
74042;SDS011;62384;53.600;10.040;2022-11-11T11:54:49;29.25;;;11.40;;
74042;SDS011;62384;53.600;10.040;2022-11-11T11:57:25;16.30;;;7.75;;
74042;SDS011;62384;53.600;10.040;2022-11-11T12:08:16;21.13;;;8.27;;
74042;SDS011;62384;53.600;10.040;2022-11-11T12:10:56;21.02;;;8.45;;
74042;SDS011;62384;53.600;10.040;2022-11-11T12:13:40;19.33;;;7.88;;
74042;SDS011;62384;53.600;10.040;2022-11-11T12:17:06;19.30;;;9.18;;
74042;SDS011;62384;53.600;10.040;2022-11-11T12:22:35;21.33;;;8.68;;
74042;SDS011;62384;53.600;10.040;2022-11-11T12:31:23;23.08;;;8.80;;
74042;SDS011;62384;53.600;10.040;2022-11-11T12:34:09;21.20;;;9.25;;
74042;SDS011;62384;53.600;10.040;2022-11-11T12:39:50;26.90;;;9.18;;
74042;SDS011;62384;53.600;10.040;2022-11-11T12:42:48;22.83;;;8.70;;
74042;SDS011;62384;53.600;10.040;2022-11-11T12:45:35;20.85;;;9.25;;
74042;SDS011;62384;53.600;10.040;2022-11-11T12:53:31;23.02;;;9.07;;
74042;SDS011;62384;53.600;10.040;2022-11-11T13:07:28;17.58;;;7.50;;
74042;SDS011;62384;53.600;10.040;2022-11-11T13:10:09;18.90;;;8.18;;
74042;SDS011;62384;53.600;10.040;2022-11-11T13:15:24;19.55;;;7.88;;
74042;SDS011;62384;53.600;10.040;2022-11-11T13:17:51;16.85;;;7.15;;
74042;SDS011;62384;53.600;10.040;2022-11-11T13:23:10;16.13;;;7.35;;
74042;SDS011;62384;53.600;10.040;2022-11-11T13:25:38;22.50;;;7.82;;
74042;SDS011;62384;53.600;10.040;2022-11-11T13:28:16;18.55;;;7.95;;
74042;SDS011;62384;53.600;10.040;2022-11-11T13:33:37;23.52;;;7.75;;
74042;SDS011;62384;53.600;10.040;2022-11-11T13:36:03;18.13;;;8.77;;
74042;SDS011;62384;53.600;10.040;2022-11-11T13:41:04;20.20;;;9.10;;
74042;SDS011;62384;53.600;10.040;2022-11-11T13:43:42;16.27;;;7.80;;
74042;SDS011;62384;53.600;10.040;2022-11-11T13:46:54;24.88;;;8.93;;
74042;SDS011;62384;53.600;10.040;2022-11-11T13:49:08;21.27;;;8.75;;
74042;SDS011;62384;53.600;10.040;2022-11-11T13:51:46;18.77;;;8.13;;
74042;SDS011;62384;53.600;10.040;2022-11-11T13:57:08;20.65;;;8.13;;
74042;SDS011;62384;53.600;10.040;2022-11-11T13:59:55;19.48;;;8.70;;
74042;SDS011;62384;53.600;10.040;2022-11-11T14:02:26;24.45;;;9.10;;
74042;SDS011;62384;53.600;10.040;2022-11-11T14:12:43;21.88;;;8.50;;
74042;SDS011;62384;53.600;10.040;2022-11-11T14:17:57;17.27;;;7.97;;
74042;SDS011;62384;53.600;10.040;2022-11-11T14:20:41;19.85;;;8.43;;
74042;SDS011;62384;53.600;10.040;2022-11-11T14:28:36;22.92;;;8.82;;
74042;SDS011;62384;53.600;10.040;2022-11-11T14:36:48;18.25;;;8.05;;
74042;SDS011;62384;53.600;10.040;2022-11-11T14:42:40;18.20;;;8.05;;
74042;SDS011;62384;53.600;10.040;2022-11-11T14:45:01;17.85;;;8.52;;
74042;SDS011;62384;53.600;10.040;2022-11-11T14:47:40;19.40;;;8.05;;
74042;SDS011;62384;53.600;10.040;2022-11-11T14:50:39;17.90;;;8.35;;
74042;SDS011;62384;53.600;10.040;2022-11-11T14:52:57;14.95;;;6.55;;
74042;SDS011;62384;53.600;10.040;2022-11-11T14:55:27;17.35;;;7.97;;
74042;SDS011;62384;53.600;10.040;2022-11-11T14:58:16;18.02;;;8.40;;
74042;SDS011;62384;53.600;10.040;2022-11-11T15:00:49;17.77;;;7.70;;
74042;SDS011;62384;53.600;10.040;2022-11-11T15:06:18;16.98;;;7.25;;
74042;SDS011;62384;53.600;10.040;2022-11-11T15:11:36;17.90;;;7.35;;
74042;SDS011;62384;53.600;10.040;2022-11-11T15:16:54;18.58;;;7.18;;
74042;SDS011;62384;53.600;10.040;2022-11-11T15:27:32;14.60;;;7.45;;
74042;SDS011;62384;53.600;10.040;2022-11-11T15:30:11;14.32;;;6.45;;
74042;SDS011;62384;53.600;10.040;2022-11-11T15:32:46;12.60;;;6.53;;
74042;SDS011;62384;53.600;10.040;2022-11-11T15:35:19;14.35;;;6.95;;
74042;SDS011;62384;53.600;10.040;2022-11-11T15:37:56;13.13;;;6.53;;
74042;SDS011;62384;53.600;10.040;2022-11-11T15:40:25;18.70;;;7.10;;
74042;SDS011;62384;53.600;10.040;2022-11-11T15:42:56;15.15;;;6.72;;
74042;SDS011;62384;53.600;10.040;2022-11-11T15:45:22;12.57;;;6.47;;
74042;SDS011;62384;53.600;10.040;2022-11-11T15:47:48;16.25;;;6.65;;
74042;SDS011;62384;53.600;10.040;2022-11-11T15:52:54;15.07;;;7.22;;
74042;SDS011;62384;53.600;10.040;2022-11-11T15:55:30;15.63;;;6.55;;
74042;SDS011;62384;53.600;10.040;2022-11-11T16:00:41;13.50;;;6.75;;
74042;SDS011;62384;53.600;10.040;2022-11-11T16:03:16;15.32;;;7.05;;
74042;SDS011;62384;53.600;10.040;2022-11-11T16:05:43;14.15;;;6.88;;
74042;SDS011;62384;53.600;10.040;2022-11-11T16:08:14;13.50;;;5.90;;
74042;SDS011;62384;53.600;10.040;2022-11-11T16:10:44;14.30;;;6.07;;
74042;SDS011;62384;53.600;10.040;2022-11-11T16:13:20;13.30;;;6.18;;
74042;SDS011;62384;53.600;10.040;2022-11-11T16:15:49;11.95;;;6.47;;
74042;SDS011;62384;53.600;10.040;2022-11-11T16:18:20;13.48;;;6.18;;
74042;SDS011;62384;53.600;10.040;2022-11-11T16:20:50;15.20;;;6.82;;
74042;SDS011;62384;53.600;10.040;2022-11-11T16:23:22;13.05;;;6.35;;
74042;SDS011;62384;53.600;10.040;2022-11-11T16:25:52;14.65;;;6.35;;
74042;SDS011;62384;53.600;10.040;2022-11-11T16:28:18;12.93;;;6.95;;
74042;SDS011;62384;53.600;10.040;2022-11-11T16:30:43;13.32;;;6.03;;
74042;SDS011;62384;53.600;10.040;2022-11-11T16:35:50;14.82;;;6.30;;
74042;SDS011;62384;53.600;10.040;2022-11-11T16:38:28;13.05;;;6.35;;
74042;SDS011;62384;53.600;10.040;2022-11-11T16:40:55;16.60;;;6.28;;
74042;SDS011;62384;53.600;10.040;2022-11-11T16:43:24;17.23;;;6.50;;
74042;SDS011;62384;53.600;10.040;2022-11-11T16:46:00;15.93;;;6.82;;
74042;SDS011;62384;53.600;10.040;2022-11-11T16:50:59;13.55;;;7.20;;
74042;SDS011;62384;53.600;10.040;2022-11-11T16:53:32;17.75;;;7.50;;
74042;SDS011;62384;53.600;10.040;2022-11-11T16:55:59;18.08;;;6.97;;
74042;SDS011;62384;53.600;10.040;2022-11-11T16:58:26;16.42;;;6.70;;
74042;SDS011;62384;53.600;10.040;2022-11-11T17:01:02;14.70;;;6.18;;
74042;SDS011;62384;53.600;10.040;2022-11-11T17:03:30;11.73;;;6.25;;
74042;SDS011;62384;53.600;10.040;2022-11-11T17:08:35;19.38;;;7.22;;
74042;SDS011;62384;53.600;10.040;2022-11-11T17:11:06;14.55;;;6.68;;
74042;SDS011;62384;53.600;10.040;2022-11-11T17:13:34;17.85;;;7.43;;
74042;SDS011;62384;53.600;10.040;2022-11-11T17:16:03;13.95;;;6.72;;
74042;SDS011;62384;53.600;10.040;2022-11-11T17:18:32;14.40;;;6.75;;
74042;SDS011;62384;53.600;10.040;2022-11-11T17:20:59;16.15;;;7.32;;